Time;durP1;ratioP1;P1;durP2;ratioP2;P2;SDS_P1;SDS_P2;PMS_P1;PMS_P2;Temp;Humidity;BMP_temperature;BMP_pressure;BME280_temperature;BME280_humidity;BME280_pressure;Samples;Min_cycle;Max_cycle;Signal;HPM_P1;HPM_P2
2022/05/14 00:01:44;;;;;;;7.97;2.37;;;;;;;;;;7381925;19;20047;-78
2022/05/14 00:04:10;;;;;;;11.63;2.40;;;;;;;;;;7373388;19;20288;-77
2022/05/14 00:06:36;;;;;;;11.88;2.78;;;;;;;;;;7381405;19;20010;-77
2022/05/14 00:09:01;;;;;;;6.75;2.42;;;;;;;;;;7377543;19;20014;-78
2022/05/14 00:14:11;;;;;;;6.28;2.47;;;;;;;;;;7382551;19;20030;-78
2022/05/14 00:16:37;;;;;;;7.60;2.47;;;;;;;;;;7381657;19;20002;-77
2022/05/14 00:19:03;;;;;;;9.52;2.28;;;;;;;;;;7374573;19;20758;-77
2022/05/14 00:21:29;;;;;;;8.68;2.47;;;;;;;;;;7372316;19;20031;-77
2022/05/14 00:23:54;;;;;;;10.82;2.78;;;;;;;;;;7379232;19;20079;-78
2022/05/14 00:26:21;;;;;;;7.53;2.85;;;;;;;;;;7349370;19;19994;-78
2022/05/14 00:28:46;;;;;;;8.05;2.40;;;;;;;;;;7376275;19;20019;-78
2022/05/14 00:31:12;;;;;;;6.80;2.53;;;;;;;;;;7382731;19;20055;-77
2022/05/14 00:33:37;;;;;;;11.07;3.00;;;;;;;;;;7380140;19;20018;-78
2022/05/14 00:36:02;;;;;;;10.60;2.50;;;;;;;;;;7373929;19;20023;-79
2022/05/14 00:38:28;;;;;;;6.85;2.70;;;;;;;;;;7380034;19;20165;-78
2022/05/14 00:40:58;;;;;;;6.57;2.70;;;;;;;;;;7373228;19;20027;-78
2022/05/14 00:43:23;;;;;;;10.77;3.05;;;;;;;;;;7378080;19;20066;-77
2022/05/14 00:45:53;;;;;;;11.70;3.47;;;;;;;;;;7373557;19;20039;-77
2022/05/14 00:48:19;;;;;;;9.48;2.53;;;;;;;;;;7380989;19;20125;-77
2022/05/14 00:50:55;;;;;;;9.32;2.80;;;;;;;;;;7372134;19;20006;-77
2022/05/14 00:53:26;;;;;;;10.63;3.33;;;;;;;;;;7372088;19;20029;-78
2022/05/14 00:55:52;;;;;;;10.93;2.90;;;;;;;;;;7376911;19;19999;-78
2022/05/14 00:58:44;;;;;;;8.88;3.58;;;;;;;;;;7377086;19;20025;-77
2022/05/14 01:01:09;;;;;;;8.43;2.90;;;;;;;;;;7375750;19;20002;-78
2022/05/14 01:03:34;;;;;;;14.18;3.00;;;;;;;;;;7379135;19;20042;-78
2022/05/14 01:06:01;;;;;;;9.88;2.90;;;;;;;;;;7376326;19;19995;-77
2022/05/14 01:08:28;;;;;;;9.57;3.30;;;;;;;;;;7375291;19;20637;-77
2022/05/14 01:10:53;;;;;;;10.02;3.75;;;;;;;;;;7366962;19;20031;-77
2022/05/14 01:13:18;;;;;;;9.02;2.90;;;;;;;;;;7382729;19;20541;-77
2022/05/14 01:15:49;;;;;;;8.45;3.50;;;;;;;;;;7376872;19;20033;-77
2022/05/14 01:18:15;;;;;;;8.35;3.03;;;;;;;;;;7380658;19;20411;-77
2022/05/14 01:20:40;;;;;;;11.93;3.30;;;;;;;;;;7372521;19;20009;-77
2022/05/14 01:23:06;;;;;;;14.43;4.15;;;;;;;;;;7377283;19;20015;-77
2022/05/14 01:28:28;;;;;;;8.20;3.42;;;;;;;;;;7382340;19;20010;-77
2022/05/14 01:30:57;;;;;;;9.60;3.40;;;;;;;;;;7377280;19;20023;-78
2022/05/14 01:33:23;;;;;;;9.98;3.42;;;;;;;;;;7378631;19;20607;-77
2022/05/14 01:35:48;;;;;;;11.30;3.45;;;;;;;;;;7370414;19;20066;-77
2022/05/14 01:38:13;;;;;;;9.13;3.30;;;;;;;;;;7377647;19;20010;-77
2022/05/14 01:40:39;;;;;;;10.80;3.58;;;;;;;;;;7370565;19;20003;-77
2022/05/14 01:43:04;;;;;;;9.95;3.65;;;;;;;;;;7379706;19;20050;-77
2022/05/14 01:45:30;;;;;;;9.82;4.18;;;;;;;;;;7376805;19;20010;-77
2022/05/14 01:47:55;;;;;;;13.57;4.30;;;;;;;;;;7372423;19;20014;-77
2022/05/14 01:50:20;;;;;;;11.75;4.00;;;;;;;;;;7374392;19;20007;-78
2022/05/14 01:52:45;;;;;;;13.63;4.25;;;;;;;;;;7377058;19;20493;-78
2022/05/14 01:55:11;;;;;;;13.73;4.30;;;;;;;;;;7370990;19;20010;-77
2022/05/14 01:57:36;;;;;;;13.48;4.60;;;;;;;;;;7374441;19;20270;-77
2022/05/14 02:00:05;;;;;;;9.77;3.67;;;;;;;;;;7376167;19;20320;-78
2022/05/14 02:02:30;;;;;;;12.68;4.25;;;;;;;;;;7375418;19;20739;-77
2022/05/14 02:04:56;;;;;;;9.90;4.07;;;;;;;;;;7375094;19;20031;-77
2022/05/14 02:07:21;;;;;;;11.27;4.63;;;;;;;;;;7363071;19;20010;-77
2022/05/14 02:09:46;;;;;;;15.73;4.77;;;;;;;;;;7372980;19;20047;-78
2022/05/14 02:12:11;;;;;;;12.53;4.73;;;;;;;;;;7372682;19;20616;-77
2022/05/14 02:14:36;;;;;;;13.60;3.95;;;;;;;;;;7373639;19;20234;-77
2022/05/14 02:17:02;;;;;;;12.65;4.47;;;;;;;;;;7378773;19;20454;-78
2022/05/14 02:19:27;;;;;;;9.38;4.60;;;;;;;;;;7372947;19;20010;-77
2022/05/14 02:21:52;;;;;;;10.80;4.33;;;;;;;;;;7373218;19;20377;-78
2022/05/14 02:24:18;;;;;;;10.68;4.15;;;;;;;;;;7368805;19;21344;-77
2022/05/14 02:26:43;;;;;;;11.20;4.90;;;;;;;;;;7371693;19;20054;-77
2022/05/14 02:29:08;;;;;;;17.23;4.50;;;;;;;;;;7372460;19;20070;-77
2022/05/14 02:31:33;;;;;;;9.47;4.10;;;;;;;;;;7380061;19;20006;-77
2022/05/14 02:33:59;;;;;;;13.65;5.15;;;;;;;;;;7365900;19;20258;-77
2022/05/14 02:36:24;;;;;;;9.25;3.85;;;;;;;;;;7373359;19;20018;-77
2022/05/14 02:38:49;;;;;;;14.30;4.30;;;;;;;;;;7374500;19;20038;-77
2022/05/14 02:41:14;;;;;;;17.77;3.90;;;;;;;;;;7373954;19;20018;-77
2022/05/14 02:43:40;;;;;;;11.13;4.40;;;;;;;;;;7377883;19;20269;-78
2022/05/14 02:46:06;;;;;;;9.43;3.95;;;;;;;;;;7368136;19;20562;-77
2022/05/14 02:48:32;;;;;;;27.33;5.43;;;;;;;;;;7375429;19;20007;-77
2022/05/14 02:50:57;;;;;;;9.02;4.25;;;;;;;;;;7365493;19;20003;-78
2022/05/14 02:53:22;;;;;;;8.85;4.15;;;;;;;;;;7370514;19;20016;-77
2022/05/14 02:55:48;;;;;;;14.45;4.72;;;;;;;;;;7369122;19;20042;-77
2022/05/14 02:58:13;;;;;;;10.77;4.28;;;;;;;;;;7372262;19;20014;-77
2022/05/14 03:00:38;;;;;;;10.87;4.47;;;;;;;;;;7374084;19;20115;-77
2022/05/14 03:03:03;;;;;;;13.13;4.40;;;;;;;;;;7373588;19;20248;-77
2022/05/14 03:05:29;;;;;;;14.23;4.28;;;;;;;;;;7375121;19;20062;-77
2022/05/14 03:07:54;;;;;;;7.90;4.22;;;;;;;;;;7366838;19;20011;-77
2022/05/14 03:10:20;;;;;;;8.15;4.40;;;;;;;;;;7356497;19;20431;-77
2022/05/14 03:12:45;;;;;;;11.65;4.55;;;;;;;;;;7369655;19;20070;-77
2022/05/14 03:15:11;;;;;;;15.33;5.07;;;;;;;;;;7370280;19;20018;-77
2022/05/14 03:17:37;;;;;;;9.57;4.22;;;;;;;;;;7375458;19;20255;-77
2022/05/14 03:20:06;;;;;;;12.57;4.53;;;;;;;;;;7378493;19;19998;-77
2022/05/14 03:22:31;;;;;;;7.75;3.42;;;;;;;;;;7372687;19;20374;-77
2022/05/14 03:24:56;;;;;;;12.32;4.90;;;;;;;;;;7372676;19;20466;-77
2022/05/14 03:27:21;;;;;;;8.87;3.93;;;;;;;;;;7374209;19;20319;-77
2022/05/14 03:29:46;;;;;;;12.85;4.45;;;;;;;;;;7375201;19;20251;-77
2022/05/14 03:32:12;;;;;;;15.30;4.53;;;;;;;;;;7366385;19;20035;-77
2022/05/14 03:34:37;;;;;;;8.20;4.37;;;;;;;;;;7377287;19;20011;-77
2022/05/14 03:37:03;;;;;;;9.63;3.83;;;;;;;;;;7381234;19;20272;-77
2022/05/14 03:39:28;;;;;;;11.77;4.30;;;;;;;;;;7378107;19;20364;-76
2022/05/14 03:41:53;;;;;;;9.50;4.13;;;;;;;;;;7370759;19;20033;-77
2022/05/14 03:44:19;;;;;;;18.23;4.32;;;;;;;;;;7383930;19;20018;-77
2022/05/14 03:46:44;;;;;;;10.00;3.63;;;;;;;;;;7372068;19;20339;-78
2022/05/14 03:49:09;;;;;;;7.57;4.25;;;;;;;;;;7383119;19;20462;-77
2022/05/14 03:51:35;;;;;;;9.95;3.70;;;;;;;;;;7372322;19;20109;-77
2022/05/14 03:54:00;;;;;;;9.57;3.60;;;;;;;;;;7377918;19;20011;-77
2022/05/14 03:56:26;;;;;;;10.57;4.30;;;;;;;;;;7383456;19;19998;-77
2022/05/14 03:58:51;;;;;;;12.88;4.07;;;;;;;;;;7385299;19;20403;-77
2022/05/14 04:01:16;;;;;;;10.18;4.20;;;;;;;;;;7386051;19;20003;-77
2022/05/14 04:03:41;;;;;;;8.35;3.80;;;;;;;;;;7379406;19;20358;-77
2022/05/14 04:06:07;;;;;;;10.40;4.13;;;;;;;;;;7382082;19;20005;-77
2022/05/14 04:08:32;;;;;;;7.88;3.70;;;;;;;;;;7383856;19;20014;-77
2022/05/14 04:10:58;;;;;;;11.38;4.43;;;;;;;;;;7377121;19;20018;-77
2022/05/14 04:13:23;;;;;;;9.60;4.18;;;;;;;;;;7381353;19;20490;-77
2022/05/14 04:15:48;;;;;;;12.88;4.50;;;;;;;;;;7383893;19;20010;-77
2022/05/14 04:18:14;;;;;;;9.70;5.00;;;;;;;;;;7383119;19;20021;-77
2022/05/14 04:20:40;;;;;;;11.02;4.85;;;;;;;;;;7380297;19;20542;-77
2022/05/14 04:23:06;;;;;;;13.73;5.30;;;;;;;;;;7384444;19;20056;-77
2022/05/14 04:25:32;;;;;;;13.70;5.40;;;;;;;;;;7376888;19;20018;-77
2022/05/14 04:27:57;;;;;;;7.85;4.75;;;;;;;;;;7383569;19;19998;-78
2022/05/14 04:30:22;;;;;;;11.13;4.73;;;;;;;;;;7381657;19;20527;-76
2022/05/14 04:32:47;;;;;;;10.17;5.13;;;;;;;;;;7381195;19;20235;-77
2022/05/14 04:35:14;;;;;;;9.47;4.97;;;;;;;;;;7380632;19;20247;-77
2022/05/14 04:37:39;;;;;;;10.70;4.70;;;;;;;;;;7378828;19;20348;-76
2022/05/14 04:40:05;;;;;;;12.32;4.28;;;;;;;;;;7374225;19;20557;-76
2022/05/14 04:42:31;;;;;;;9.95;4.18;;;;;;;;;;7373047;19;20015;-77
2022/05/14 04:44:56;;;;;;;9.55;4.13;;;;;;;;;;7378463;19;20319;-76
2022/05/14 04:47:21;;;;;;;8.27;4.40;;;;;;;;;;7372794;19;20010;-77
2022/05/14 04:49:47;;;;;;;9.93;4.13;;;;;;;;;;7381753;19;20036;-77
2022/05/14 04:52:13;;;;;;;8.90;4.32;;;;;;;;;;7382388;19;20787;-77
2022/05/14 04:54:38;;;;;;;8.90;3.80;;;;;;;;;;7375638;19;19998;-77
2022/05/14 04:57:04;;;;;;;9.63;4.28;;;;;;;;;;7377889;19;20010;-77
2022/05/14 04:59:29;;;;;;;9.55;4.03;;;;;;;;;;7380550;19;20006;-78
2022/05/14 05:04:39;;;;;;;10.63;4.07;;;;;;;;;;7368932;19;20291;-79
2022/05/14 05:07:05;;;;;;;7.32;2.92;;;;;;;;;;7359703;19;20186;-78
2022/05/14 05:09:30;;;;;;;8.30;3.30;;;;;;;;;;7374818;19;20026;-79
2022/05/14 05:11:55;;;;;;;8.45;3.85;;;;;;;;;;7380067;19;20244;-79
2022/05/14 05:14:20;;;;;;;7.47;3.20;;;;;;;;;;7377061;19;20478;-78
2022/05/14 05:16:45;;;;;;;12.93;4.30;;;;;;;;;;7368591;19;20274;-78
2022/05/14 05:19:10;;;;;;;8.57;2.95;;;;;;;;;;7377308;19;20684;-78
2022/05/14 05:21:36;;;;;;;6.93;3.20;;;;;;;;;;7372512;19;20002;-78
2022/05/14 05:24:05;;;;;;;8.83;3.30;;;;;;;;;;7386292;19;20238;-76
2022/05/14 05:26:31;;;;;;;8.82;3.00;;;;;;;;;;7403483;19;20255;-77
2022/05/14 05:28:56;;;;;;;7.47;3.50;;;;;;;;;;7403958;19;20014;-76
2022/05/14 05:31:21;;;;;;;5.47;3.00;;;;;;;;;;7396248;19;20017;-79
2022/05/14 05:33:46;;;;;;;9.00;3.77;;;;;;;;;;7385542;19;20278;-77
2022/05/14 05:36:11;;;;;;;8.13;3.23;;;;;;;;;;7398335;19;20286;-75
2022/05/14 05:38:37;;;;;;;8.18;3.65;;;;;;;;;;7390128;19;20248;-76
2022/05/14 05:41:03;;;;;;;9.93;3.97;;;;;;;;;;7403183;19;20033;-79
2022/05/14 05:43:28;;;;;;;8.60;4.53;;;;;;;;;;7377100;19;20054;-76
2022/05/14 05:45:53;;;;;;;8.03;3.73;;;;;;;;;;7365211;19;20235;-81
2022/05/14 05:48:19;;;;;;;7.97;3.80;;;;;;;;;;7376573;19;20247;-77
2022/05/14 05:50:48;;;;;;;8.82;3.90;;;;;;;;;;7365198;19;20255;-81
2022/05/14 05:53:14;;;;;;;10.85;4.55;;;;;;;;;;7372551;19;20034;-76
2022/05/14 05:58:23;;;;;;;12.40;4.38;;;;;;;;;;7376442;19;20426;-80
2022/05/14 06:00:48;;;;;;;11.32;4.50;;;;;;;;;;7372050;19;20018;-83
2022/05/14 06:03:13;;;;;;;11.50;4.77;;;;;;;;;;7377824;19;20021;-80
2022/05/14 06:05:38;;;;;;;16.03;4.60;;;;;;;;;;7369998;19;20565;-83
2022/05/14 06:08:11;;;;;;;11.40;4.43;;;;;;;;;;7371062;19;20278;-78
2022/05/14 06:10:37;;;;;;;10.90;5.07;;;;;;;;;;7366112;19;20006;-81
2022/05/14 06:13:02;;;;;;;18.45;5.60;;;;;;;;;;7367235;19;20070;-77
2022/05/14 06:15:27;;;;;;;10.43;4.53;;;;;;;;;;7362517;19;20303;-78
2022/05/14 06:17:52;;;;;;;10.90;5.13;;;;;;;;;;7365150;19;20785;-80
2022/05/14 06:20:18;;;;;;;19.65;5.93;;;;;;;;;;7365131;19;20107;-76
2022/05/14 06:22:43;;;;;;;12.60;4.97;;;;;;;;;;7365112;19;20002;-82
2022/05/14 06:25:09;;;;;;;13.00;4.85;;;;;;;;;;7373401;19;20011;-79
2022/05/14 06:27:34;;;;;;;14.70;4.55;;;;;;;;;;7369277;19;20359;-80
2022/05/14 06:29:59;;;;;;;12.60;4.00;;;;;;;;;;7376782;19;20006;-81
2022/05/14 06:32:24;;;;;;;18.43;4.73;;;;;;;;;;7378224;19;20600;-81
2022/05/14 06:34:50;;;;;;;8.57;2.93;;;;;;;;;;7376224;19;20246;-81
2022/05/14 06:37:15;;;;;;;8.27;2.95;;;;;;;;;;7379973;19;20323;-81
2022/05/14 06:39:41;;;;;;;8.00;3.13;;;;;;;;;;7373497;19;20016;-82
2022/05/14 06:42:06;;;;;;;11.00;2.90;;;;;;;;;;7377382;19;20602;-76
2022/05/14 06:44:31;;;;;;;8.75;3.05;;;;;;;;;;7382317;19;20014;-81
2022/05/14 06:46:57;;;;;;;9.20;3.33;;;;;;;;;;7372761;19;20087;-82
2022/05/14 06:49:23;;;;;;;11.00;3.25;;;;;;;;;;7375692;19;20700;-83
2022/05/14 17:40:18;;;;;;;8.55;2.42;;;;;;;;;;7356012;19;20018;-77
2022/05/14 17:42:43;;;;;;;9.57;2.38;;;;;;;;;;7352254;19;20022;-79
2022/05/14 17:45:09;;;;;;;10.73;2.60;;;;;;;;;;7360075;19;19994;-78
2022/05/14 17:47:36;;;;;;;12.65;2.45;;;;;;;;;;7365871;19;20014;-77
2022/05/14 17:50:01;;;;;;;11.63;2.83;;;;;;;;;;7375315;19;20029;-76
2022/05/14 17:52:26;;;;;;;12.60;3.03;;;;;;;;;;7370356;19;20007;-78
2022/05/14 17:54:52;;;;;;;7.97;2.60;;;;;;;;;;7350300;19;20243;-78
2022/05/14 17:57:17;;;;;;;9.13;2.87;;;;;;;;;;7368469;19;20014;-80
2022/05/14 17:59:42;;;;;;;10.27;2.55;;;;;;;;;;7379672;19;20016;-79
2022/05/14 18:02:09;;;;;;;7.53;2.60;;;;;;;;;;7371301;19;20435;-80
2022/05/14 18:04:34;;;;;;;11.77;2.55;;;;;;;;;;7376585;19;20006;-80
2022/05/14 18:07:00;;;;;;;11.13;2.60;;;;;;;;;;7378529;19;20037;-78
2022/05/14 18:09:27;;;;;;;15.57;3.67;;;;;;;;;;7371037;19;20517;-79
2022/05/14 18:11:53;;;;;;;8.73;2.55;;;;;;;;;;7356064;19;20055;-78
2022/05/14 18:14:25;;;;;;;9.77;2.85;;;;;;;;;;7371509;19;20371;-80
2022/05/14 18:16:51;;;;;;;16.70;3.47;;;;;;;;;;7367920;19;20570;-79
2022/05/14 18:19:17;;;;;;;11.23;2.78;;;;;;;;;;7346530;19;20010;-80
2022/05/14 18:21:43;;;;;;;16.52;3.83;;;;;;;;;;7373808;19;20010;-80
2022/05/14 18:24:08;;;;;;;11.30;2.78;;;;;;;;;;7362692;19;20011;-77
2022/05/14 18:26:37;;;;;;;10.95;2.60;;;;;;;;;;7356772;19;20018;-77
2022/05/14 18:29:03;;;;;;;12.75;2.72;;;;;;;;;;7362615;19;20038;-78
2022/05/14 18:31:29;;;;;;;11.88;3.05;;;;;;;;;;7368078;19;20006;-75
2022/05/14 18:33:57;;;;;;;13.32;2.90;;;;;;;;;;7363381;19;20014;-77
2022/05/14 18:36:22;;;;;;;10.60;3.00;;;;;;;;;;7342235;19;20018;-78
2022/05/14 18:38:56;;;;;;;11.77;2.92;;;;;;;;;;7338529;19;20003;-76
2022/05/14 18:41:23;;;;;;;6.63;2.47;;;;;;;;;;7347638;19;20504;-77
2022/05/14 18:43:49;;;;;;;10.05;2.60;;;;;;;;;;7354220;19;20018;-77
2022/05/14 18:46:14;;;;;;;13.25;3.40;;;;;;;;;;7365727;19;20022;-78
2022/05/14 18:48:39;;;;;;;10.63;2.47;;;;;;;;;;7360322;19;20014;-79
2022/05/14 18:51:06;;;;;;;10.10;2.80;;;;;;;;;;7365945;19;20454;-77
2022/05/14 18:53:32;;;;;;;14.63;3.47;;;;;;;;;;7361934;19;20251;-79
2022/05/14 18:55:57;;;;;;;15.75;3.40;;;;;;;;;;7345106;19;19998;-78
2022/05/14 18:58:22;;;;;;;12.35;3.38;;;;;;;;;;7364162;19;20013;-78
2022/05/14 19:00:48;;;;;;;12.77;3.07;;;;;;;;;;7357000;19;20017;-77
2022/05/14 19:03:14;;;;;;;12.25;2.83;;;;;;;;;;7369766;19;20877;-76
2022/05/14 19:08:23;;;;;;;;;;;;;;;;;;7374115;19;20005;-78
2022/05/14 19:10:49;;;;;;;8.70;2.78;;;;;;;;;;7361046;19;19914;-77
2022/05/14 19:13:14;;;;;;;10.05;2.60;;;;;;;;;;7380125;19;20017;-77
2022/05/14 19:15:40;;;;;;;11.38;3.10;;;;;;;;;;7369809;19;20812;-80
2022/05/14 19:18:05;;;;;;;11.18;2.83;;;;;;;;;;7364515;19;20021;-79
2022/05/14 19:20:31;;;;;;;9.20;3.10;;;;;;;;;;7355417;19;20062;-77
2022/05/14 19:22:57;;;;;;;10.15;2.65;;;;;;;;;;7364693;19;20022;-77
2022/05/14 19:25:22;;;;;;;11.48;2.80;;;;;;;;;;7356449;19;20590;-77
2022/05/14 19:27:47;;;;;;;13.80;4.10;;;;;;;;;;7362162;19;20017;-77
2022/05/14 19:30:13;;;;;;;19.23;7.83;;;;;;;;;;7371113;19;20002;-78
2022/05/14 19:32:39;;;;;;;16.48;4.20;;;;;;;;;;7361709;19;20275;-77
2022/05/14 19:35:04;;;;;;;10.23;2.97;;;;;;;;;;7352427;19;20026;-75
2022/05/14 19:37:35;;;;;;;13.38;3.20;;;;;;;;;;7375245;19;20007;-81
2022/05/14 19:40:05;;;;;;;13.65;3.40;;;;;;;;;;7369943;19;20014;-78
2022/05/14 19:42:35;;;;;;;9.57;3.58;;;;;;;;;;7379857;19;20014;-76
2022/05/14 19:45:11;;;;;;;10.32;2.60;;;;;;;;;;7362939;19;20422;-78
2022/05/14 19:47:37;;;;;;;10.40;3.05;;;;;;;;;;7357896;19;20006;-78
2022/05/14 19:50:03;;;;;;;13.82;4.43;;;;;;;;;;7359836;19;20344;-79
2022/05/14 19:52:28;;;;;;;10.32;3.28;;;;;;;;;;7379856;19;20010;-76
2022/05/14 19:54:54;;;;;;;15.48;3.33;;;;;;;;;;7361285;19;20002;-77
2022/05/14 19:57:21;;;;;;;10.97;3.27;;;;;;;;;;7374761;19;20333;-78
2022/05/14 19:59:46;;;;;;;15.10;4.07;;;;;;;;;;7361084;19;20269;-80
2022/05/14 20:02:11;;;;;;;12.00;3.35;;;;;;;;;;7367587;19;20015;-77
2022/05/14 20:04:37;;;;;;;12.33;2.83;;;;;;;;;;7375658;19;20539;-79
2022/05/14 20:07:03;;;;;;;13.57;3.40;;;;;;;;;;7369429;19;20694;-80
2022/05/14 20:09:29;;;;;;;13.07;2.88;;;;;;;;;;7369887;19;20617;-79
2022/05/14 20:11:54;;;;;;;12.95;3.28;;;;;;;;;;7376040;19;20006;-77
2022/05/14 20:14:20;;;;;;;11.23;3.58;;;;;;;;;;7372883;19;19991;-79
2022/05/14 20:22:13;;;;;;;17.00;3.72;;;;;;;;;;7371504;19;20005;-83
2022/05/14 20:24:38;;;;;;;10.95;3.33;;;;;;;;;;7365501;19;20379;-76
2022/05/14 20:27:04;;;;;;;11.20;3.23;;;;;;;;;;7364693;19;20570;-80
2022/05/14 20:29:30;;;;;;;13.77;3.10;;;;;;;;;;7372874;19;20247;-78
2022/05/14 20:31:57;;;;;;;12.63;3.88;;;;;;;;;;7364472;19;20022;-79
2022/05/14 20:34:22;;;;;;;13.27;3.78;;;;;;;;;;7363349;19;20123;-80
2022/05/14 20:36:48;;;;;;;10.10;2.80;;;;;;;;;;7352571;19;20031;-81
2022/05/14 20:39:13;;;;;;;12.80;3.20;;;;;;;;;;7354099;19;20407;-76
2022/05/14 20:41:38;;;;;;;13.05;3.60;;;;;;;;;;7352060;19;20085;-80
2022/05/14 20:44:03;;;;;;;12.43;3.28;;;;;;;;;;7371000;19;20002;-77
2022/05/14 20:46:31;;;;;;;13.80;3.40;;;;;;;;;;7377416;19;20010;-81
2022/05/14 20:48:57;;;;;;;9.93;2.92;;;;;;;;;;7375395;19;20006;-79
2022/05/14 20:51:22;;;;;;;19.55;3.35;;;;;;;;;;7374199;19;19999;-79
2022/05/14 20:53:47;;;;;;;10.47;3.37;;;;;;;;;;7379466;19;20105;-75
2022/05/14 20:56:13;;;;;;;10.20;3.23;;;;;;;;;;7371255;19;20006;-81
2022/05/14 20:58:39;;;;;;;10.45;3.15;;;;;;;;;;7379976;19;20017;-78
2022/05/14 21:01:04;;;;;;;8.65;2.92;;;;;;;;;;7379577;19;20003;-75
2022/05/14 21:03:29;;;;;;;12.93;3.77;;;;;;;;;;7380146;19;20450;-75
2022/05/14 21:05:55;;;;;;;13.30;4.13;;;;;;;;;;7381216;19;20027;-80
2022/05/14 21:08:20;;;;;;;10.73;3.27;;;;;;;;;;7381415;19;20239;-76
2022/05/14 21:10:46;;;;;;;12.65;3.88;;;;;;;;;;7376903;19;20270;-81
2022/05/14 21:13:11;;;;;;;9.32;2.88;;;;;;;;;;7382176;19;20311;-79
2022/05/14 21:15:37;;;;;;;11.48;3.10;;;;;;;;;;7380941;19;20012;-76
2022/05/14 21:18:03;;;;;;;8.85;2.92;;;;;;;;;;7376261;19;20032;-79
2022/05/14 21:20:28;;;;;;;13.88;3.47;;;;;;;;;;7381423;19;19998;-78
2022/05/14 21:22:53;;;;;;;15.30;3.08;;;;;;;;;;7380034;19;20114;-78
2022/05/14 21:25:21;;;;;;;13.65;3.60;;;;;;;;;;7378834;19;19991;-79
2022/05/14 21:27:46;;;;;;;13.13;3.30;;;;;;;;;;7370227;19;20470;-77
2022/05/14 21:30:13;;;;;;;17.13;3.57;;;;;;;;;;7376227;19;20016;-77
2022/05/14 21:32:38;;;;;;;17.30;4.22;;;;;;;;;;7379717;19;20251;-81
2022/05/14 21:37:48;;;;;;;16.27;4.75;;;;;;;;;;7375169;19;20029;-79
2022/05/14 21:40:15;;;;;;;12.40;3.37;;;;;;;;;;7373404;19;20573;-79
2022/05/14 21:42:47;;;;;;;11.60;3.00;;;;;;;;;;7368466;19;20122;-75
2022/05/14 21:45:13;;;;;;;11.93;3.70;;;;;;;;;;7375764;19;20010;-76
2022/05/14 21:47:38;;;;;;;15.63;3.80;;;;;;;;;;7379404;19;20015;-78
2022/05/14 21:50:03;;;;;;;11.37;4.10;;;;;;;;;;7374261;19;20368;-77
2022/05/14 21:52:28;;;;;;;14.07;3.65;;;;;;;;;;7361549;19;20754;-77
2022/05/14 21:54:56;;;;;;;11.50;3.27;;;;;;;;;;7368357;19;20018;-79
2022/05/14 21:57:21;;;;;;;10.93;3.75;;;;;;;;;;7363805;19;20243;-78
2022/05/14 21:59:46;;;;;;;12.80;3.60;;;;;;;;;;7369310;19;20029;-76
2022/05/14 22:04:47;;;;;;;9.15;3.60;;;;;;;;;;7355610;19;21140;-78
2022/05/14 22:07:14;;;;;;;12.60;3.75;;;;;;;;;;7355914;19;20021;-81
2022/05/14 22:09:39;;;;;;;12.05;3.45;;;;;;;;;;7360652;19;20017;-75
2022/05/14 22:12:04;;;;;;;19.02;4.10;;;;;;;;;;7368281;19;20010;-79
2022/05/14 22:14:30;;;;;;;10.85;3.88;;;;;;;;;;7376476;19;20035;-75
2022/05/14 22:16:55;;;;;;;11.57;4.70;;;;;;;;;;7352333;19;20508;-76
2022/05/14 22:19:22;;;;;;;10.30;4.15;;;;;;;;;;7370974;19;20506;-79
2022/05/14 22:21:47;;;;;;;13.93;3.90;;;;;;;;;;7372810;19;20021;-77
2022/05/14 22:24:13;;;;;;;15.05;4.88;;;;;;;;;;7372462;19;20006;-77
2022/05/14 22:26:38;;;;;;;14.32;4.30;;;;;;;;;;7377795;19;20336;-77
2022/05/14 22:29:03;;;;;;;13.60;4.83;;;;;;;;;;7377429;19;20367;-76
2022/05/14 22:31:29;;;;;;;12.98;4.40;;;;;;;;;;7373577;19;20255;-77
2022/05/14 22:33:54;;;;;;;11.90;4.18;;;;;;;;;;7370978;19;20010;-78
2022/05/14 22:36:20;;;;;;;13.07;4.53;;;;;;;;;;7371642;19;20054;-76
2022/05/14 22:38:45;;;;;;;14.85;5.07;;;;;;;;;;7368907;19;20268;-76
2022/05/14 22:41:11;;;;;;;13.83;5.07;;;;;;;;;;7373407;19;20070;-75
2022/05/14 22:43:38;;;;;;;15.40;4.53;;;;;;;;;;7377757;19;20334;-75
2022/05/14 22:46:04;;;;;;;14.35;4.80;;;;;;;;;;7376744;19;20011;-76
2022/05/14 22:48:30;;;;;;;15.68;5.10;;;;;;;;;;7366953;19;20020;-79
2022/05/14 22:50:56;;;;;;;13.82;4.47;;;;;;;;;;7375854;19;20473;-75
2022/05/14 22:53:22;;;;;;;11.77;4.55;;;;;;;;;;7379223;19;20042;-76
2022/05/14 22:55:48;;;;;;;10.68;4.40;;;;;;;;;;7373607;19;20078;-77
2022/05/14 22:58:14;;;;;;;15.30;5.30;;;;;;;;;;7380582;19;20014;-74
2022/05/14 23:00:42;;;;;;;11.68;4.60;;;;;;;;;;7382236;19;20006;-75
2022/05/14 23:03:07;;;;;;;12.93;5.03;;;;;;;;;;7377394;19;20450;-75
2022/05/14 23:05:33;;;;;;;15.15;4.43;;;;;;;;;;7374806;19;20005;-75
2022/05/14 23:07:58;;;;;;;11.88;5.40;;;;;;;;;;7377828;19;20034;-78
2022/05/14 23:10:25;;;;;;;17.70;5.33;;;;;;;;;;7377332;19;20007;-74
2022/05/14 23:12:50;;;;;;;15.57;6.32;;;;;;;;;;7378047;19;20251;-76
2022/05/14 23:15:15;;;;;;;14.32;5.72;;;;;;;;;;7379314;19;20018;-77
2022/05/14 23:17:41;;;;;;;16.35;5.75;;;;;;;;;;7378038;19;20011;-78
2022/05/14 23:20:08;;;;;;;16.67;5.97;;;;;;;;;;7381344;19;20016;-79
2022/05/14 23:22:35;;;;;;;13.10;4.88;;;;;;;;;;7379264;19;20466;-76
2022/05/14 23:25:00;;;;;;;13.48;4.47;;;;;;;;;;7375383;19;19990;-77
2022/05/14 23:27:26;;;;;;;12.43;4.93;;;;;;;;;;7378957;19;20021;-78
2022/05/14 23:29:51;;;;;;;14.45;4.47;;;;;;;;;;7381112;19;20010;-75
2022/05/14 23:32:17;;;;;;;12.37;4.73;;;;;;;;;;7380508;19;19990;-75
2022/05/14 23:34:42;;;;;;;16.60;5.30;;;;;;;;;;7374832;19;20270;-75
2022/05/14 23:37:07;;;;;;;15.57;4.85;;;;;;;;;;7381261;19;20243;-76
2022/05/14 23:39:32;;;;;;;12.93;4.27;;;;;;;;;;7376017;19;20011;-76
2022/05/14 23:41:57;;;;;;;14.00;5.23;;;;;;;;;;7379496;19;20602;-76
2022/05/14 23:44:24;;;;;;;14.25;5.57;;;;;;;;;;7371881;19;20010;-76
2022/05/14 23:46:50;;;;;;;17.00;5.40;;;;;;;;;;7375899;19;20025;-76
2022/05/14 23:49:15;;;;;;;14.63;5.15;;;;;;;;;;7380359;19;20360;-77
2022/05/14 23:51:40;;;;;;;10.40;4.47;;;;;;;;;;7379551;19;20023;-77
2022/05/14 23:54:05;;;;;;;11.10;4.07;;;;;;;;;;7382815;19;20753;-79
2022/05/14 23:56:31;;;;;;;13.70;4.65;;;;;;;;;;7384453;19;20010;-81
